createdAt,value
2023-02-22T00:00:19.278Z,100506.69
2023-02-22T00:02:47.107Z,100509.59
2023-02-22T00:05:17.561Z,100509.59
2023-02-22T00:07:45.742Z,100509.75
2023-02-22T00:10:14.487Z,100504.13
2023-02-22T00:12:42.249Z,100502.47
2023-02-22T00:15:09.995Z,100499.72
2023-02-22T00:17:37.846Z,100499.72
2023-02-22T00:20:07.302Z,100506.88
2023-02-22T00:22:35.114Z,100503.31
2023-02-22T00:25:02.867Z,100498.03
2023-02-22T00:27:30.838Z,100499.72
2023-02-22T00:29:58.921Z,100494.28
2023-02-22T00:32:26.796Z,100498.69
2023-02-22T00:34:54.760Z,100501.78
2023-02-22T00:37:22.492Z,100499.06
2023-02-22T00:39:50.374Z,100497.38
2023-02-22T00:42:18.159Z,100494.66
2023-02-22T00:44:46.071Z,100490.03
2023-02-22T00:47:13.940Z,100497.38
2023-02-22T00:49:41.811Z,100496.72
2023-02-22T00:52:10.245Z,100493.31
2023-02-22T00:54:38.068Z,100492.66
2023-02-22T00:57:05.839Z,100489.09
2023-02-22T00:59:33.636Z,100492.00
2023-02-22T01:02:01.563Z,100490.31
2023-02-22T01:04:29.780Z,100484.19
2023-02-22T01:06:58.747Z,100490.31
2023-02-22T01:09:26.987Z,100486.75
2023-02-22T01:11:56.447Z,100488.63
2023-02-22T01:14:24.213Z,100485.03
2023-02-22T01:16:52.101Z,100483.19
2023-02-22T01:19:19.881Z,100483.34
2023-02-22T01:21:48.318Z,100479.09
2023-02-22T01:24:16.497Z,100478.28
2023-02-22T01:26:45.497Z,100477.44
2023-02-22T01:29:15.198Z,100481.66
2023-02-22T01:31:44.170Z,100480.31
2023-02-22T01:34:12.967Z,100481.38
2023-02-22T01:36:41.337Z,100475.25
2023-02-22T01:39:10.591Z,100470.81
2023-02-22T01:41:39.055Z,100472.53
2023-02-22T01:44:06.889Z,100474.59
2023-02-22T01:46:34.769Z,100463.50
2023-02-22T01:49:02.490Z,100463.50
2023-02-22T01:51:30.260Z,100459.06
2023-02-22T01:53:58.036Z,100460.13
2023-02-22T01:56:25.884Z,100459.06
2023-02-22T01:58:53.743Z,100458.06
2023-02-22T02:01:21.538Z,100448.16
2023-02-22T02:03:50.316Z,100460.97
2023-02-22T02:06:18.174Z,100456.56
2023-02-22T02:08:49.861Z,100456.34
2023-02-22T02:11:17.870Z,100460.13
2023-02-22T02:13:45.849Z,100452.94
2023-02-22T02:16:14.732Z,100457.41
2023-02-22T02:18:45.266Z,100456.56
2023-02-22T02:21:13.115Z,100455.69
2023-02-22T02:23:41.318Z,100453.81
2023-02-22T02:26:09.198Z,100449.22
2023-02-22T02:28:37.178Z,100446.66
2023-02-22T02:31:04.975Z,100452.31
2023-02-22T02:33:32.723Z,100441.78
2023-02-22T02:36:00.484Z,100447.03
2023-02-22T02:38:28.230Z,100443.47
2023-02-22T02:40:56.213Z,100443.66
2023-02-22T02:43:23.957Z,100437.34
2023-02-22T02:45:51.716Z,100432.75
2023-02-22T02:48:19.570Z,100436.69
2023-02-22T02:50:47.311Z,100433.97
2023-02-22T02:53:17.170Z,100431.44
2023-02-22T02:55:45.033Z,100430.59
2023-02-22T02:58:12.979Z,100427.88
2023-02-22T03:00:40.787Z,100436.22
2023-02-22T03:03:08.642Z,100431.63
2023-02-22T03:05:36.381Z,100429.94
2023-02-22T03:08:04.267Z,100419.03
2023-02-22T03:10:32.078Z,100425.50
2023-02-22T03:12:59.951Z,100419.22
2023-02-22T03:15:27.741Z,100422.13
2023-02-22T03:17:55.567Z,100422.13
2023-02-22T03:20:23.358Z,100417.69
2023-02-22T03:22:51.281Z,100413.09
2023-02-22T03:25:19.039Z,100416.03
2023-02-22T03:27:46.837Z,100414.97
2023-02-22T03:30:14.704Z,100421.25
2023-02-22T03:32:42.616Z,100408.84
2023-02-22T03:35:10.366Z,100407.16
2023-02-22T03:37:38.245Z,100407.31
2023-02-22T03:40:14.063Z,100410.03
2023-02-22T03:42:41.929Z,100406.84
2023-02-22T03:45:10.173Z,100408.53
2023-02-22T03:47:38.089Z,100405.19
2023-02-22T03:50:06.990Z,100407.03
2023-02-22T03:52:35.533Z,100408.06
2023-02-22T03:55:03.478Z,100408.06
2023-02-22T03:57:31.460Z,100404.31
2023-02-22T03:59:59.211Z,100402.44
2023-02-22T04:02:27.158Z,100408.91
2023-02-22T04:04:54.950Z,100407.03
2023-02-22T04:07:22.709Z,100402.63
2023-02-22T04:09:50.464Z,100401.41
2023-02-22T04:12:18.282Z,100407.22
2023-02-22T04:14:46.066Z,100404.50
2023-02-22T04:17:13.834Z,100402.63
2023-02-22T04:19:41.665Z,100401.56
2023-02-22T04:22:09.544Z,100400.75
2023-02-22T04:24:37.299Z,100407.03
2023-02-22T04:27:05.615Z,100406.19
2023-02-22T04:29:33.389Z,100409.75
2023-02-22T04:32:01.123Z,100401.56
2023-02-22T04:34:28.936Z,100400.75
2023-02-22T04:36:56.762Z,100399.72
2023-02-22T04:39:24.558Z,100397.19
2023-02-22T04:41:52.396Z,100392.56
2023-02-22T04:44:20.210Z,100390.69
2023-02-22T04:46:48.077Z,100395.28
2023-02-22T04:49:15.860Z,100392.56
2023-02-22T04:51:43.729Z,100389.84
2023-02-22T04:54:12.943Z,100391.34
2023-02-22T04:56:40.767Z,100391.56
2023-02-22T04:59:08.588Z,100392.56
2023-02-22T05:01:36.422Z,100383.56
2023-02-22T05:04:04.261Z,100380.00
2023-02-22T05:06:32.062Z,100378.09
2023-02-22T05:08:59.950Z,100378.09
2023-02-22T05:11:27.791Z,100374.53
2023-02-22T05:13:55.579Z,100379.16
2023-02-22T05:16:23.420Z,100378.47
2023-02-22T05:18:51.248Z,100379.31
2023-02-22T05:21:19.398Z,100382.03
2023-02-22T05:23:47.209Z,100377.66
2023-02-22T05:26:16.251Z,100377.66
2023-02-22T05:28:44.006Z,100374.03
2023-02-22T05:31:11.798Z,100377.44
2023-02-22T05:33:40.648Z,100378.66
2023-02-22T05:36:08.536Z,100378.66
2023-02-22T05:38:36.285Z,100379.69
2023-02-22T05:41:04.429Z,100379.69
2023-02-22T05:43:32.239Z,100375.28
2023-02-22T05:46:00.040Z,100381.59
2023-02-22T05:48:27.786Z,100379.03
2023-02-22T05:50:56.182Z,100381.75
2023-02-22T05:53:24.033Z,100379.88
2023-02-22T05:55:51.865Z,100376.50
2023-02-22T05:58:19.615Z,100379.41
2023-02-22T06:00:47.407Z,100375.63
2023-02-22T06:03:15.162Z,100374.63
2023-02-22T06:05:43.051Z,100381.97
2023-02-22T06:08:10.829Z,100376.84
2023-02-22T06:10:38.606Z,100376.84
2023-02-22T06:13:06.421Z,100376.84
2023-02-22T06:15:34.188Z,100379.78
2023-02-22T06:18:02.004Z,100377.22
2023-02-22T06:20:29.803Z,100378.06
2023-02-22T06:22:57.758Z,100381.84
2023-02-22T06:25:25.916Z,100381.00
2023-02-22T06:27:53.730Z,100380.16
2023-02-22T06:30:21.580Z,100376.38
2023-02-22T06:32:49.399Z,100381.84
2023-02-22T06:35:17.139Z,100381.16
2023-02-22T06:37:44.944Z,100393.09
2023-02-22T06:40:12.702Z,100387.66
2023-02-22T06:42:40.525Z,100395.81
2023-02-22T06:45:08.389Z,100396.84
2023-02-22T06:47:36.241Z,100403.31
2023-02-22T06:50:04.093Z,100397.88
2023-02-22T06:52:31.945Z,100399.94
2023-02-22T06:54:59.710Z,100402.66
2023-02-22T06:57:27.492Z,100407.94
2023-02-22T06:59:55.553Z,100404.38
2023-02-22T07:02:23.417Z,100396.38
2023-02-22T07:04:51.414Z,100401.66
2023-02-22T07:07:19.150Z,100401.66
2023-02-22T07:09:46.898Z,100404.38
2023-02-22T07:12:14.731Z,100405.22
2023-02-22T07:14:42.491Z,100402.47
2023-02-22T07:17:11.597Z,100407.72
2023-02-22T07:19:39.420Z,100408.59
2023-02-22T07:22:07.164Z,100412.16
2023-02-22T07:24:35.248Z,100412.16
2023-02-22T07:27:03.138Z,100409.44
2023-02-22T07:29:31.476Z,100410.44
2023-02-22T07:31:59.378Z,100414.88
2023-02-22T07:34:27.163Z,100414.88
2023-02-22T07:36:54.987Z,100420.34
2023-02-22T07:39:22.897Z,100415.72
2023-02-22T07:41:50.951Z,100410.28
2023-02-22T07:44:18.706Z,100409.44
2023-02-22T07:46:46.486Z,100405.69
2023-02-22T07:49:14.247Z,100400.22
2023-02-22T07:51:42.082Z,100401.94
2023-02-22T07:54:10.978Z,100410.75
2023-02-22T07:56:52.100Z,100409.75
2023-02-22T07:59:21.865Z,100403.78
2023-02-22T08:01:49.906Z,100404.00
2023-02-22T08:04:17.686Z,100401.75
2023-02-22T08:06:46.342Z,100406.34
2023-02-22T08:09:15.505Z,100400.91
2023-02-22T08:11:43.231Z,100402.78
2023-02-22T08:14:11.281Z,100400.72
2023-02-22T08:16:39.069Z,100402.78
2023-02-22T08:19:06.941Z,100404.66
2023-02-22T08:21:34.709Z,100402.13
2023-02-22T08:24:02.534Z,100402.13
2023-02-22T08:26:30.326Z,100403.16
2023-02-22T08:28:58.136Z,100408.41
2023-02-22T08:31:26.097Z,100402.94
2023-02-22T08:33:53.863Z,100399.56
2023-02-22T08:36:21.737Z,100395.16
2023-02-22T08:38:49.463Z,100398.56
2023-02-22T08:41:17.519Z,100397.72
2023-02-22T08:43:45.455Z,100396.84
2023-02-22T08:46:13.232Z,100404.38
2023-02-22T08:48:40.967Z,100402.47
2023-02-22T08:51:09.704Z,100391.59
2023-02-22T08:53:37.885Z,100390.75
2023-02-22T08:56:05.629Z,100393.47
2023-02-22T08:58:33.380Z,100390.75
2023-02-22T09:01:01.076Z,100393.09
2023-02-22T09:03:29.173Z,100394.78
2023-02-22T09:05:56.982Z,100397.50
2023-02-22T09:08:24.736Z,100395.81
2023-02-22T09:10:52.466Z,100390.75
2023-02-22T09:13:20.181Z,100389.88
2023-02-22T09:15:47.933Z,100395.16
2023-02-22T09:18:18.085Z,100396.19
2023-02-22T09:20:45.886Z,100397.22
2023-02-22T09:23:14.529Z,100389.03
2023-02-22T09:25:42.341Z,100390.09
2023-02-22T09:28:10.358Z,100384.63
2023-02-22T09:30:38.251Z,100390.09
2023-02-22T09:33:06.675Z,100389.25
2023-02-22T09:35:37.706Z,100389.41
2023-02-22T09:38:06.358Z,100389.41
2023-02-22T09:40:34.152Z,100385.00
2023-02-22T09:43:02.026Z,100392.13
2023-02-22T09:45:30.375Z,100388.56
2023-02-22T09:48:01.297Z,100386.84
2023-02-22T09:50:35.648Z,100384.34
2023-02-22T09:53:04.363Z,100380.78
2023-02-22T09:55:34.175Z,100370.06
2023-02-22T09:58:01.978Z,100369.00
2023-02-22T10:00:32.563Z,100366.13
2023-02-22T10:03:00.909Z,100368.00
2023-02-22T10:05:28.827Z,100372.41
2023-02-22T10:07:56.640Z,100363.56
2023-02-22T10:10:24.570Z,100362.56
2023-02-22T10:12:53.346Z,100358.13
2023-02-22T10:15:21.415Z,100362.72
2023-02-22T10:17:49.222Z,100356.44
2023-02-22T10:20:17.019Z,100361.88
2023-02-22T10:22:44.802Z,100349.31
2023-02-22T10:25:13.228Z,100349.31
2023-02-22T10:27:41.023Z,100355.59
2023-02-22T10:30:23.394Z,100348.28
2023-02-22T10:32:52.174Z,100348.47
2023-02-22T10:35:19.994Z,100350.34
2023-02-22T10:37:48.315Z,100347.59
2023-02-22T10:40:17.388Z,100341.31
2023-02-22T10:42:45.245Z,100340.47
2023-02-22T10:45:13.043Z,100351.38
2023-02-22T10:47:40.970Z,100343.22
2023-02-22T10:50:08.748Z,100342.16
2023-02-22T10:52:36.709Z,100339.44
2023-02-22T10:55:15.362Z,100339.66
2023-02-22T10:57:44.071Z,100337.09
2023-02-22T11:00:14.004Z,100336.25
2023-02-22T11:02:41.831Z,100330.63
2023-02-22T11:05:09.704Z,100331.66
2023-02-22T11:07:37.495Z,100328.91
2023-02-22T11:10:05.380Z,100326.19
2023-02-22T11:12:33.278Z,100325.53
2023-02-22T11:15:01.114Z,100322.81
2023-02-22T11:17:28.928Z,100324.53
2023-02-22T11:19:56.748Z,100321.97
2023-02-22T11:22:24.875Z,100315.69
2023-02-22T11:27:20.888Z,100314.66
2023-02-22T11:29:50.942Z,100311.91
2023-02-22T11:32:21.349Z,100307.34
2023-02-22T11:34:52.826Z,100299.34
2023-02-22T11:37:22.994Z,100303.97
2023-02-22T11:39:51.406Z,100296.63
2023-02-22T11:42:19.207Z,100287.63
2023-02-22T11:44:47.100Z,100284.91
2023-02-22T11:47:15.190Z,100277.56
2023-02-22T11:49:43.012Z,100280.31
2023-02-22T11:52:10.844Z,100270.47
2023-02-22T11:54:38.649Z,100273.34
2023-02-22T11:57:07.233Z,100261.63
2023-02-22T11:59:36.646Z,100277.94
2023-02-22T12:02:04.405Z,100269.78
2023-02-22T12:04:33.188Z,100268.06
2023-02-22T12:07:01.095Z,100264.34
2023-02-22T12:09:28.894Z,100266.22
2023-02-22T12:11:57.344Z,100262.63
2023-02-22T12:14:25.318Z,100264.34
2023-02-22T12:16:54.607Z,100259.91
2023-02-22T12:19:23.153Z,100261.13
2023-02-22T12:21:52.079Z,100260.28
2023-02-22T12:24:19.887Z,100260.28
2023-02-22T12:26:48.471Z,100261.13
2023-02-22T12:29:16.238Z,100255.69
2023-02-22T12:31:45.558Z,100254.00
2023-02-22T12:34:13.528Z,100253.16
2023-02-22T12:36:41.931Z,100254.84
2023-02-22T12:39:09.683Z,100247.72
2023-02-22T12:41:38.410Z,100257.78
2023-02-22T12:44:06.201Z,100250.44
2023-02-22T12:46:33.991Z,100246.00
2023-02-22T12:49:01.928Z,100252.31
2023-02-22T12:51:29.719Z,100243.13
2023-02-22T12:53:57.515Z,100247.72
2023-02-22T12:56:25.330Z,100238.88
2023-02-22T12:58:54.334Z,100238.88
2023-02-22T13:01:22.245Z,100235.31
2023-02-22T13:03:50.378Z,100237.22
2023-02-22T13:06:18.209Z,100228.38
2023-02-22T13:08:45.976Z,100228.38
2023-02-22T13:11:15.013Z,100224.81
2023-02-22T13:13:42.921Z,100228.38
2023-02-22T13:16:10.784Z,100227.53
2023-02-22T13:18:39.218Z,100217.28
2023-02-22T13:21:07.050Z,100218.34
2023-02-22T13:23:34.898Z,100220.22
2023-02-22T13:26:03.782Z,100215.78
2023-02-22T13:28:32.169Z,100214.09
2023-02-22T13:31:00.050Z,100217.88
2023-02-22T13:33:28.294Z,100214.09
2023-02-22T13:35:56.103Z,100217.00
2023-02-22T13:38:24.337Z,100212.44
2023-02-22T13:40:52.187Z,100217.88
2023-02-22T13:43:20.011Z,100213.44
2023-02-22T13:45:48.415Z,100206.13
2023-02-22T13:48:16.349Z,100212.44
2023-02-22T13:50:44.154Z,100216.00
2023-02-22T13:53:11.943Z,100219.56
2023-02-22T13:55:39.942Z,100212.44
2023-02-22T13:58:07.739Z,100211.75
2023-02-22T14:00:35.555Z,100206.97
2023-02-22T14:03:03.440Z,100204.25
2023-02-22T14:05:31.514Z,100206.97
2023-02-22T14:07:59.299Z,100210.72
2023-02-22T14:10:27.100Z,100204.25
2023-02-22T14:12:55.124Z,100206.13
2023-02-22T14:15:31.255Z,100195.22
2023-02-22T14:17:59.186Z,100194.38
2023-02-22T14:20:32.100Z,100194.59
2023-02-22T14:23:00.070Z,100185.75
2023-02-22T14:25:28.414Z,100183.88
2023-02-22T14:27:57.925Z,100196.44
2023-02-22T14:30:26.280Z,100187.28
2023-02-22T14:32:54.261Z,100181.81
2023-02-22T14:35:30.092Z,100179.94
2023-02-22T14:38:03.785Z,100181.81
2023-02-22T14:40:31.589Z,100176.56
2023-02-22T14:42:59.474Z,100175.72
2023-02-22T14:45:29.258Z,100171.31
2023-02-22T14:48:01.294Z,100167.56
2023-02-22T14:50:30.113Z,100169.63
2023-02-22T14:52:57.967Z,100158.09
2023-02-22T14:55:25.687Z,100158.72
2023-02-22T14:57:54.840Z,100158.34
2023-02-22T15:00:30.616Z,100159.94
2023-02-22T15:02:59.145Z,100151.81
2023-02-22T15:05:30.073Z,100162.88
2023-02-22T15:07:57.873Z,100163.06
2023-02-22T15:10:25.983Z,100157.28
2023-02-22T15:12:53.744Z,100159.66
2023-02-22T15:15:22.149Z,100159.69
2023-02-22T15:17:49.968Z,100154.91
2023-02-22T15:20:17.781Z,100165.69
2023-02-22T15:22:45.715Z,100159.44
2023-02-22T15:25:13.526Z,100153.03
2023-02-22T15:27:41.546Z,100160.66
2023-02-22T15:30:09.388Z,100149.47
2023-02-22T15:32:37.211Z,100151.19
2023-02-22T15:35:05.065Z,100154.31
2023-02-22T15:37:32.816Z,100148.53
2023-02-22T15:40:00.596Z,100146.81
2023-02-22T15:42:30.519Z,100144.00
2023-02-22T15:44:58.291Z,100147.94
2023-02-22T15:47:26.160Z,100145.25
2023-02-22T15:49:53.917Z,100141.56
2023-02-22T15:52:21.663Z,100139.47
2023-02-22T15:54:49.426Z,100140.38
2023-02-22T15:57:17.300Z,100137.47
2023-02-22T15:59:45.423Z,100135.16
2023-02-22T16:02:13.353Z,100131.31
2023-02-22T16:04:45.905Z,100135.25
2023-02-22T16:07:17.954Z,100131.97
2023-02-22T16:09:45.779Z,100133.94
2023-02-22T16:12:13.829Z,100127.94
2023-02-22T16:14:44.976Z,100135.69
2023-02-22T16:17:13.119Z,100129.44
2023-02-22T16:19:44.908Z,100130.25
2023-02-22T16:22:14.154Z,100126.88
2023-02-22T16:24:42.409Z,100133.69
2023-02-22T16:27:10.329Z,100132.16
2023-02-22T16:29:38.344Z,100135.31
2023-02-22T16:32:06.201Z,100134.31
2023-02-22T16:34:34.759Z,100137.00
2023-02-22T16:37:02.547Z,100130.19
2023-02-22T16:39:30.270Z,100135.06
2023-02-22T16:41:57.985Z,100135.13
2023-02-22T16:44:26.993Z,100129.94
2023-02-22T16:46:54.679Z,100131.84
2023-02-22T16:49:23.125Z,100134.19
2023-02-22T16:51:53.403Z,100132.88
2023-02-22T16:54:21.156Z,100134.50
2023-02-22T16:56:48.891Z,100140.56
2023-02-22T16:59:16.610Z,100134.34
2023-02-22T17:01:44.298Z,100132.28
2023-02-22T17:04:14.471Z,100137.75
2023-02-22T17:06:42.182Z,100128.66
2023-02-22T17:09:09.878Z,100127.78
2023-02-22T17:11:37.579Z,100129.72
2023-02-22T17:14:05.304Z,100135.44
2023-02-22T17:16:33.008Z,100136.34
2023-02-22T17:19:00.753Z,100130.59
2023-02-22T17:21:28.465Z,100128.44
2023-02-22T17:23:56.182Z,100136.03
2023-02-22T17:26:26.186Z,100138.47
2023-02-22T17:28:53.914Z,100131.34
2023-02-22T17:31:21.762Z,100138.81
2023-02-22T17:33:51.471Z,100130.91
2023-02-22T17:36:19.387Z,100136.03
2023-02-22T17:38:47.296Z,100130.72
2023-02-22T17:47:36.590Z,100124.47
2023-02-22T17:50:15.465Z,100123.63
2023-02-22T17:52:45.545Z,100118.34
2023-02-22T17:58:31.161Z,100114.22
2023-02-22T18:01:24.956Z,100111.94
2023-02-22T18:03:55.262Z,100107.75
2023-02-22T18:06:25.221Z,100113.13
2023-02-22T18:09:00.538Z,100112.72
2023-02-22T18:11:32.544Z,100108.66
2023-02-22T18:16:56.268Z,100110.25
2023-02-22T18:19:24.011Z,100099.03
2023-02-22T18:21:52.473Z,100100.44
2023-02-22T18:24:20.356Z,100096.13
2023-02-22T18:26:48.356Z,100097.28
2023-02-22T18:29:16.134Z,100096.13
2023-02-22T18:31:45.434Z,100092.38
2023-02-22T18:34:13.564Z,100093.69
2023-02-22T18:36:41.471Z,100096.63
2023-02-22T18:39:11.774Z,100090.66
2023-02-22T18:41:39.596Z,100094.84
2023-02-22T18:44:10.422Z,100083.50
2023-02-22T18:46:38.257Z,100081.00
2023-02-22T18:49:06.074Z,100090.50
2023-02-22T18:51:33.982Z,100082.75
2023-02-22T18:54:01.795Z,100075.59
2023-02-22T18:56:30.858Z,100076.84
2023-02-22T18:59:01.761Z,100070.16
2023-02-22T19:01:29.546Z,100075.22
2023-02-22T19:03:57.465Z,100071.03
2023-02-22T19:06:25.293Z,100071.63
2023-02-22T19:08:53.544Z,100061.69
2023-02-22T19:11:21.994Z,100060.25
2023-02-22T19:13:50.325Z,100066.13
2023-02-22T19:16:20.054Z,100062.66
2023-02-22T19:18:48.659Z,100067.63
2023-02-22T19:21:16.681Z,100070.91
2023-02-22T19:23:47.641Z,100064.63
2023-02-22T19:26:18.539Z,100067.09
2023-02-22T19:28:46.665Z,100063.13
2023-02-22T19:31:14.641Z,100054.00
2023-02-22T19:33:42.498Z,100055.72
2023-02-22T19:36:10.379Z,100054.03
2023-02-22T19:38:38.173Z,100063.22
2023-02-22T19:41:10.091Z,100057.16
2023-02-22T19:43:38.256Z,100050.91
2023-02-22T19:46:06.139Z,100051.09
2023-02-22T19:48:34.009Z,100044.91
2023-02-22T19:51:01.797Z,100044.91
2023-02-22T19:53:29.541Z,100040.00
2023-02-22T19:55:57.488Z,100042.53
2023-02-22T19:58:25.327Z,100039.03
2023-02-22T20:00:53.179Z,100038.81
2023-02-22T20:03:24.622Z,100039.06
2023-02-22T20:05:52.476Z,100039.78
2023-02-22T20:08:20.857Z,100046.53
2023-02-22T20:10:48.627Z,100043.34
2023-02-22T20:13:17.132Z,100043.41
2023-02-22T20:15:45.135Z,100051.84
2023-02-22T20:18:12.984Z,100041.28
2023-02-22T20:20:42.036Z,100041.50
2023-02-22T20:23:10.369Z,100045.84
2023-02-22T20:25:38.158Z,100040.00
2023-02-22T20:28:07.728Z,100052.09
2023-02-22T20:30:35.525Z,100052.03
2023-02-22T20:33:03.542Z,100043.13
2023-02-22T20:35:31.904Z,100042.66
2023-02-22T20:37:59.854Z,100041.66
2023-02-22T20:40:27.625Z,100045.75
2023-02-22T20:42:56.316Z,100040.13
2023-02-22T20:45:24.106Z,100039.16
2023-02-22T20:47:51.914Z,100047.56
2023-02-22T20:50:19.658Z,100040.88
2023-02-22T20:52:47.455Z,100032.47
2023-02-22T20:55:15.321Z,100039.03
2023-02-22T20:57:43.129Z,100046.03
2023-02-22T21:00:11.050Z,100041.22
2023-02-22T21:02:39.470Z,100050.75
2023-02-22T21:05:07.270Z,100041.03
2023-02-22T21:07:34.990Z,100047.81
2023-02-22T21:10:06.093Z,100043.63
2023-02-22T21:12:33.901Z,100049.75
2023-02-22T21:15:01.677Z,100047.03
2023-02-22T21:17:30.833Z,100045.34
2023-02-22T21:19:58.572Z,100052.06
2023-02-22T21:22:26.404Z,100047.06
2023-02-22T21:24:54.392Z,100054.56
2023-02-22T21:27:22.178Z,100051.22
2023-02-22T21:29:49.910Z,100053.50
2023-02-22T21:32:17.986Z,100049.09
2023-02-22T21:34:45.796Z,100043.22
2023-02-22T21:37:18.050Z,100043.78
2023-02-22T21:39:47.531Z,100046.09
2023-02-22T21:42:15.453Z,100046.91
2023-02-22T21:44:43.262Z,100043.97
2023-02-22T21:47:11.001Z,100039.34
2023-02-22T21:49:38.910Z,100032.56
2023-02-22T21:52:07.797Z,100040.75
2023-02-22T21:54:35.551Z,100039.03
2023-02-22T21:57:06.216Z,100035.41
2023-02-22T21:59:33.989Z,100040.03
2023-02-22T22:02:01.818Z,100041.47
2023-02-22T22:04:29.615Z,100043.16
2023-02-22T22:06:57.804Z,100037.03
2023-02-22T22:09:29.040Z,100026.94
2023-02-22T22:11:58.398Z,100043.72
2023-02-22T22:14:26.225Z,100038.69
2023-02-22T22:16:53.937Z,100032.34
2023-02-22T22:19:22.848Z,100032.75
2023-02-22T22:21:53.558Z,100035.25
2023-02-22T22:24:21.395Z,100035.19
2023-02-22T22:26:51.223Z,100033.06
2023-02-22T22:29:18.999Z,100035.53
2023-02-22T22:31:46.882Z,100037.44
2023-02-22T22:34:14.672Z,100036.31
2023-02-22T22:36:43.393Z,100031.03
2023-02-22T22:39:14.031Z,100032.94
2023-02-22T22:41:41.853Z,100035.00
2023-02-22T22:44:09.913Z,100041.34
2023-02-22T22:46:39.711Z,100043.41
2023-02-22T22:49:07.918Z,100034.59
2023-02-22T22:51:35.975Z,100041.53
2023-02-22T22:54:03.705Z,100038.78
2023-02-22T22:56:35.140Z,100034.59
2023-02-22T22:59:07.460Z,100038.38
2023-02-22T23:01:39.139Z,100032.03
2023-02-22T23:04:06.863Z,100035.00
2023-02-22T23:06:34.637Z,100042.75
2023-02-22T23:09:09.184Z,100042.13
2023-02-22T23:11:36.972Z,100037.50
2023-02-22T23:14:04.750Z,100034.78
2023-02-22T23:16:33.324Z,100038.56
2023-02-22T23:19:01.204Z,100037.72
2023-02-22T23:21:28.979Z,100042.34
2023-02-22T23:23:58.208Z,100041.69
2023-02-22T23:26:26.825Z,100040.00
2023-02-22T23:28:54.682Z,100042.72
2023-02-22T23:31:22.686Z,100035.56
2023-02-22T23:33:50.660Z,100038.31
2023-02-22T23:36:18.457Z,100040.38
2023-02-22T23:38:46.404Z,100034.09
2023-02-22T23:41:16.620Z,100031.56
2023-02-22T23:43:44.634Z,100035.31
2023-02-22T23:46:12.393Z,100031.56
2023-02-22T23:48:40.340Z,100033.44
2023-02-22T23:51:09.193Z,100038.88
2023-02-22T23:53:38.151Z,100030.94
2023-02-22T23:56:10.010Z,100027.38
2023-02-22T23:58:37.991Z,100027.56
